sensor_id;sensor_type;location;lat;lon;timestamp;pressure;altitude;pressure_sealevel;temperature;humidity
16821;BME280;8527;49.740;6.604;2023-01-31T00:02:53;100848.19;;;0.78;100.00
16821;BME280;8527;49.740;6.604;2023-01-31T00:07:51;100832.53;;;0.78;100.00
16821;BME280;8527;49.740;6.604;2023-01-31T00:12:49;100822.06;;;0.78;100.00
16821;BME280;8527;49.740;6.604;2023-01-31T00:17:48;100822.13;;;0.76;100.00
16821;BME280;8527;49.740;6.604;2023-01-31T00:22:49;100836.72;;;0.80;100.00
16821;BME280;8527;49.740;6.604;2023-01-31T00:27:48;100833.59;;;0.91;100.00
16821;BME280;8527;49.740;6.604;2023-01-31T00:32:46;100831.72;;;0.93;100.00
16821;BME280;8527;49.740;6.604;2023-01-31T00:37:50;100820.13;;;0.99;100.00
16821;BME280;8527;49.740;6.604;2023-01-31T00:42:50;100830.03;;;0.92;100.00
16821;BME280;8527;49.740;6.604;2023-01-31T00:47:49;100838.03;;;0.89;100.00
16821;BME280;8527;49.740;6.604;2023-01-31T00:52:50;100837.13;;;0.90;100.00
16821;BME280;8527;49.740;6.604;2023-01-31T00:57:51;100833.47;;;0.93;100.00
16821;BME280;8527;49.740;6.604;2023-01-31T01:02:55;100837.66;;;0.97;100.00
16821;BME280;8527;49.740;6.604;2023-01-31T01:07:56;100832.41;;;0.97;100.00
16821;BME280;8527;49.740;6.604;2023-01-31T01:12:55;100830.72;;;0.96;100.00
16821;BME280;8527;49.740;6.604;2023-01-31T01:17:54;100837.13;;;0.90;100.00
16821;BME280;8527;49.740;6.604;2023-01-31T01:22:52;100849.16;;;0.93;100.00
16821;BME280;8527;49.740;6.604;2023-01-31T01:27:53;100829.13;;;0.93;100.00
16821;BME280;8527;49.740;6.604;2023-01-31T01:32:53;100834.41;;;0.92;100.00
16821;BME280;8527;49.740;6.604;2023-01-31T01:37:52;100835.91;;;0.80;100.00
16821;BME280;8527;49.740;6.604;2023-01-31T01:42:53;100842.81;;;0.81;100.00
16821;BME280;8527;49.740;6.604;2023-01-31T01:47:53;100850.09;;;0.74;100.00
16821;BME280;8527;49.740;6.604;2023-01-31T01:52:55;100833.69;;;0.72;100.00
16821;BME280;8527;49.740;6.604;2023-01-31T01:58:00;100825.22;;;0.67;100.00
16821;BME280;8527;49.740;6.604;2023-01-31T02:03:04;100821.13;;;0.61;100.00
16821;BME280;8527;49.740;6.604;2023-01-31T02:08:12;100838.13;;;0.52;100.00
16821;BME280;8527;49.740;6.604;2023-01-31T02:13:17;100833.66;;;0.54;100.00
16821;BME280;8527;49.740;6.604;2023-01-31T02:18:16;100831.59;;;0.44;100.00
16821;BME280;8527;49.740;6.604;2023-01-31T02:23:36;100826.81;;;0.34;100.00
16821;BME280;8527;49.740;6.604;2023-01-31T02:29:10;100827.59;;;0.36;100.00
16821;BME280;8527;49.740;6.604;2023-01-31T02:34:23;100850.25;;;0.36;100.00
16821;BME280;8527;49.740;6.604;2023-01-31T02:39:30;100844.72;;;0.42;100.00
16821;BME280;8527;49.740;6.604;2023-01-31T02:44:46;100835.28;;;0.39;100.00
16821;BME280;8527;49.740;6.604;2023-01-31T02:50:05;100838.13;;;0.35;100.00
16821;BME280;8527;49.740;6.604;2023-01-31T02:55:11;100833.13;;;0.30;100.00
16821;BME280;8527;49.740;6.604;2023-01-31T03:00:31;100825.50;;;0.25;100.00
16821;BME280;8527;49.740;6.604;2023-01-31T03:05:33;100837.47;;;0.30;100.00
16821;BME280;8527;49.740;6.604;2023-01-31T03:10:43;100836.94;;;0.23;100.00
16821;BME280;8527;49.740;6.604;2023-01-31T03:15:59;100825.72;;;0.03;100.00
16821;BME280;8527;49.740;6.604;2023-01-31T03:21:17;100818.94;;;-0.01;100.00
16821;BME280;8527;49.740;6.604;2023-01-31T03:26:21;100827.03;;;0.12;100.00
16821;BME280;8527;49.740;6.604;2023-01-31T03:31:25;100830.03;;;0.22;100.00
16821;BME280;8527;49.740;6.604;2023-01-31T03:36:34;100829.56;;;0.13;100.00
16821;BME280;8527;49.740;6.604;2023-01-31T03:41:53;100834.88;;;-0.07;100.00
16821;BME280;8527;49.740;6.604;2023-01-31T03:46:58;100818.25;;;-0.05;100.00
16821;BME280;8527;49.740;6.604;2023-01-31T03:52:04;100830.16;;;0.01;100.00
16821;BME280;8527;49.740;6.604;2023-01-31T03:57:11;100825.22;;;-0.05;100.00
16821;BME280;8527;49.740;6.604;2023-01-31T04:02:15;100816.56;;;-0.06;100.00
16821;BME280;8527;49.740;6.604;2023-01-31T04:07:25;100808.03;;;-0.09;100.00
16821;BME280;8527;49.740;6.604;2023-01-31T04:12:26;100810.72;;;-0.11;100.00
16821;BME280;8527;49.740;6.604;2023-01-31T04:17:27;100816.66;;;-0.26;100.00
16821;BME280;8527;49.740;6.604;2023-01-31T04:22:28;100807.31;;;-0.50;100.00
16821;BME280;8527;49.740;6.604;2023-01-31T04:27:35;100812.00;;;-0.39;100.00
16821;BME280;8527;49.740;6.604;2023-01-31T04:32:33;100812.78;;;-0.56;100.00
16821;BME280;8527;49.740;6.604;2023-01-31T04:37:34;100822.81;;;-0.47;100.00
16821;BME280;8527;49.740;6.604;2023-01-31T04:42:33;100827.72;;;-0.40;100.00
16821;BME280;8527;49.740;6.604;2023-01-31T04:47:31;100833.78;;;-0.40;100.00
16821;BME280;8527;49.740;6.604;2023-01-31T04:52:30;100812.22;;;-0.44;100.00
16821;BME280;8527;49.740;6.604;2023-01-31T04:57:34;100814.47;;;-0.55;100.00
16821;BME280;8527;49.740;6.604;2023-01-31T05:02:32;100822.09;;;-0.50;100.00
16821;BME280;8527;49.740;6.604;2023-01-31T05:07:34;100828.94;;;-0.48;100.00
16821;BME280;8527;49.740;6.604;2023-01-31T05:12:35;100820.53;;;-0.35;100.00
16821;BME280;8527;49.740;6.604;2023-01-31T05:17:33;100823.34;;;-0.21;100.00
16821;BME280;8527;49.740;6.604;2023-01-31T05:22:31;100819.41;;;-0.10;100.00
16821;BME280;8527;49.740;6.604;2023-01-31T05:27:35;100815.72;;;-0.06;100.00
16821;BME280;8527;49.740;6.604;2023-01-31T05:32:40;100818.88;;;0.01;100.00
16821;BME280;8527;49.740;6.604;2023-01-31T05:37:42;100817.72;;;0.06;100.00
16821;BME280;8527;49.740;6.604;2023-01-31T05:42:55;100814.25;;;0.06;100.00
16821;BME280;8527;49.740;6.604;2023-01-31T05:47:55;100822.78;;;0.09;100.00
16821;BME280;8527;49.740;6.604;2023-01-31T05:52:54;100829.25;;;0.20;100.00
16821;BME280;8527;49.740;6.604;2023-01-31T05:57:56;100832.63;;;0.22;100.00
16821;BME280;8527;49.740;6.604;2023-01-31T06:02:56;100827.34;;;0.23;100.00
16821;BME280;8527;49.740;6.604;2023-01-31T06:08:00;100834.25;;;0.24;100.00
16821;BME280;8527;49.740;6.604;2023-01-31T06:13:04;100836.56;;;0.31;100.00
16821;BME280;8527;49.740;6.604;2023-01-31T06:18:03;100832.25;;;0.30;100.00
16821;BME280;8527;49.740;6.604;2023-01-31T06:23:02;100833.13;;;0.30;100.00
16821;BME280;8527;49.740;6.604;2023-01-31T06:28:03;100831.22;;;0.34;100.00
16821;BME280;8527;49.740;6.604;2023-01-31T06:33:01;100836.50;;;0.32;100.00
16821;BME280;8527;49.740;6.604;2023-01-31T06:38:03;100829.53;;;0.33;100.00
16821;BME280;8527;49.740;6.604;2023-01-31T06:43:13;100819.91;;;0.33;100.00
16821;BME280;8527;49.740;6.604;2023-01-31T06:48:17;100830.34;;;0.33;100.00
16821;BME280;8527;49.740;6.604;2023-01-31T06:53:16;100843.34;;;0.35;100.00
16821;BME280;8527;49.740;6.604;2023-01-31T06:58:17;100822.75;;;0.28;100.00
16821;BME280;8527;49.740;6.604;2023-01-31T07:03:19;100827.91;;;0.30;100.00
16821;BME280;8527;49.740;6.604;2023-01-31T07:08:17;100815.78;;;0.29;100.00
16821;BME280;8527;49.740;6.604;2023-01-31T07:13:19;100818.38;;;0.29;100.00
16821;BME280;8527;49.740;6.604;2023-01-31T07:18:25;100814.91;;;0.28;100.00
16821;BME280;8527;49.740;6.604;2023-01-31T07:23:31;100838.13;;;0.35;100.00
16821;BME280;8527;49.740;6.604;2023-01-31T07:28:33;100820.63;;;0.37;100.00
16821;BME280;8527;49.740;6.604;2023-01-31T07:33:32;100828.44;;;0.37;100.00
16821;BME280;8527;49.740;6.604;2023-01-31T07:38:38;100827.47;;;0.39;100.00
16821;BME280;8527;49.740;6.604;2023-01-31T07:43:39;100833.50;;;0.40;100.00
16821;BME280;8527;49.740;6.604;2023-01-31T07:48:41;100847.25;;;0.44;100.00
16821;BME280;8527;49.740;6.604;2023-01-31T07:53:39;100866.13;;;0.49;100.00
16821;BME280;8527;49.740;6.604;2023-01-31T07:58:45;100862.69;;;0.48;100.00
16821;BME280;8527;49.740;6.604;2023-01-31T08:03:47;100841.66;;;0.51;100.00
16821;BME280;8527;49.740;6.604;2023-01-31T08:08:46;100847.63;;;0.53;100.00
16821;BME280;8527;49.740;6.604;2023-01-31T08:13:48;100846.59;;;0.58;100.00
16821;BME280;8527;49.740;6.604;2023-01-31T08:18:47;100857.84;;;0.58;100.00
16821;BME280;8527;49.740;6.604;2023-01-31T08:23:46;100863.94;;;0.59;100.00
16821;BME280;8527;49.740;6.604;2023-01-31T08:28:50;100858.63;;;0.60;100.00
16821;BME280;8527;49.740;6.604;2023-01-31T08:33:53;100860.19;;;0.64;100.00
16821;BME280;8527;49.740;6.604;2023-01-31T08:38:53;100860.03;;;0.67;100.00
16821;BME280;8527;49.740;6.604;2023-01-31T08:43:55;100840.34;;;0.78;100.00
16821;BME280;8527;49.740;6.604;2023-01-31T08:48:58;100845.34;;;0.82;100.00
16821;BME280;8527;49.740;6.604;2023-01-31T08:53:56;100847.69;;;0.87;100.00
16821;BME280;8527;49.740;6.604;2023-01-31T08:58:57;100853.84;;;1.04;100.00
16821;BME280;8527;49.740;6.604;2023-01-31T09:03:55;100861.44;;;1.08;100.00
16821;BME280;8527;49.740;6.604;2023-01-31T09:08:55;100864.03;;;1.26;100.00
16821;BME280;8527;49.740;6.604;2023-01-31T09:13:57;100858.91;;;1.40;100.00
16821;BME280;8527;49.740;6.604;2023-01-31T09:18:56;100864.91;;;1.43;100.00
16821;BME280;8527;49.740;6.604;2023-01-31T09:23:56;100861.75;;;1.36;100.00
16821;BME280;8527;49.740;6.604;2023-01-31T09:28:59;100867.00;;;1.36;100.00
16821;BME280;8527;49.740;6.604;2023-01-31T09:33:58;100865.41;;;1.33;100.00
16821;BME280;8527;49.740;6.604;2023-01-31T09:38:58;100873.75;;;1.40;100.00
16821;BME280;8527;49.740;6.604;2023-01-31T09:44:02;100863.22;;;1.42;100.00
16821;BME280;8527;49.740;6.604;2023-01-31T09:49:04;100863.66;;;1.50;100.00
16821;BME280;8527;49.740;6.604;2023-01-31T09:54:16;100852.78;;;1.58;100.00
16821;BME280;8527;49.740;6.604;2023-01-31T09:59:22;100845.44;;;1.64;100.00
16821;BME280;8527;49.740;6.604;2023-01-31T10:04:33;100853.63;;;1.74;100.00
16821;BME280;8527;49.740;6.604;2023-01-31T10:09:41;100841.97;;;1.80;100.00
16821;BME280;8527;49.740;6.604;2023-01-31T10:14:46;100835.50;;;1.87;100.00
16821;BME280;8527;49.740;6.604;2023-01-31T10:19:57;100843.75;;;1.95;100.00
16821;BME280;8527;49.740;6.604;2023-01-31T10:24:59;100842.22;;;2.07;100.00
16821;BME280;8527;49.740;6.604;2023-01-31T10:30:04;100843.22;;;2.21;100.00
16821;BME280;8527;49.740;6.604;2023-01-31T10:35:13;100846.69;;;2.21;100.00
16821;BME280;8527;49.740;6.604;2023-01-31T10:40:15;100825.03;;;2.34;100.00
16821;BME280;8527;49.740;6.604;2023-01-31T10:45:18;100791.03;;;2.48;100.00
16821;BME280;8527;49.740;6.604;2023-01-31T10:50:20;100773.34;;;2.52;100.00
16821;BME280;8527;49.740;6.604;2023-01-31T10:55:36;100753.66;;;2.61;100.00
16821;BME280;8527;49.740;6.604;2023-01-31T11:00:43;100748.03;;;2.67;100.00
16821;BME280;8527;49.740;6.604;2023-01-31T11:05:47;100746.81;;;2.73;100.00
16821;BME280;8527;49.740;6.604;2023-01-31T11:10:50;100726.91;;;2.85;100.00
16821;BME280;8527;49.740;6.604;2023-01-31T11:15:52;100726.31;;;2.94;100.00
16821;BME280;8527;49.740;6.604;2023-01-31T11:20:52;100730.44;;;2.98;100.00
16821;BME280;8527;49.740;6.604;2023-01-31T11:25:54;100718.75;;;3.04;100.00
16821;BME280;8527;49.740;6.604;2023-01-31T11:30:59;100712.25;;;3.09;100.00
16821;BME280;8527;49.740;6.604;2023-01-31T11:36:06;100700.44;;;3.17;100.00
16821;BME280;8527;49.740;6.604;2023-01-31T11:41:27;100674.97;;;3.19;100.00
16821;BME280;8527;49.740;6.604;2023-01-31T11:46:29;100662.31;;;3.26;100.00
16821;BME280;8527;49.740;6.604;2023-01-31T11:51:37;100640.38;;;3.27;100.00
16821;BME280;8527;49.740;6.604;2023-01-31T11:56:36;100643.34;;;3.35;100.00
16821;BME280;8527;49.740;6.604;2023-01-31T12:01:44;100619.69;;;3.49;100.00
16821;BME280;8527;49.740;6.604;2023-01-31T12:06:43;100611.94;;;3.61;100.00
16821;BME280;8527;49.740;6.604;2023-01-31T12:12:00;100639.28;;;3.71;100.00
16821;BME280;8527;49.740;6.604;2023-01-31T12:17:03;100629.72;;;3.83;100.00
16821;BME280;8527;49.740;6.604;2023-01-31T12:22:07;100626.06;;;3.86;100.00
16821;BME280;8527;49.740;6.604;2023-01-31T12:27:17;100611.03;;;3.88;100.00
16821;BME280;8527;49.740;6.604;2023-01-31T12:32:42;100597.69;;;3.91;100.00
16821;BME280;8527;49.740;6.604;2023-01-31T12:37:56;100603.59;;;3.94;100.00
16821;BME280;8527;49.740;6.604;2023-01-31T12:43:02;100608.53;;;3.99;100.00
16821;BME280;8527;49.740;6.604;2023-01-31T12:48:31;100595.50;;;4.11;100.00
16821;BME280;8527;49.740;6.604;2023-01-31T12:53:52;100597.53;;;4.20;100.00
16821;BME280;8527;49.740;6.604;2023-01-31T12:59:01;100580.69;;;4.22;100.00
16821;BME280;8527;49.740;6.604;2023-01-31T13:09:40;100575.97;;;4.28;100.00
16821;BME280;8527;49.740;6.604;2023-01-31T13:14:41;100559.25;;;4.29;100.00
16821;BME280;8527;49.740;6.604;2023-01-31T13:19:49;100542.66;;;4.28;100.00
16821;BME280;8527;49.740;6.604;2023-01-31T13:25:02;100528.88;;;4.38;100.00
16821;BME280;8527;49.740;6.604;2023-01-31T13:30:06;100524.88;;;4.45;100.00
16821;BME280;8527;49.740;6.604;2023-01-31T13:35:19;100517.59;;;4.48;100.00
16821;BME280;8527;49.740;6.604;2023-01-31T13:40:22;100540.63;;;4.45;100.00
16821;BME280;8527;49.740;6.604;2023-01-31T13:45:24;100527.81;;;4.40;100.00
16821;BME280;8527;49.740;6.604;2023-01-31T13:50:36;100523.19;;;4.44;100.00
16821;BME280;8527;49.740;6.604;2023-01-31T13:55:41;100510.16;;;4.42;100.00
16821;BME280;8527;49.740;6.604;2023-01-31T14:00:43;100517.94;;;4.44;100.00
16821;BME280;8527;49.740;6.604;2023-01-31T14:06:00;100514.22;;;4.46;100.00
16821;BME280;8527;49.740;6.604;2023-01-31T14:10:59;100527.78;;;4.53;100.00
16821;BME280;8527;49.740;6.604;2023-01-31T14:15:59;100538.91;;;4.57;100.00
16821;BME280;8527;49.740;6.604;2023-01-31T14:26:51;100562.06;;;4.52;100.00
16821;BME280;8527;49.740;6.604;2023-01-31T14:31:52;100563.09;;;4.49;100.00
16821;BME280;8527;49.740;6.604;2023-01-31T14:37:08;100568.13;;;4.52;100.00
16821;BME280;8527;49.740;6.604;2023-01-31T14:47:45;100565.72;;;4.49;100.00
16821;BME280;8527;49.740;6.604;2023-01-31T14:53:09;100567.63;;;4.47;100.00
16821;BME280;8527;49.740;6.604;2023-01-31T14:58:16;100570.13;;;4.48;100.00
16821;BME280;8527;49.740;6.604;2023-01-31T15:03:20;100548.53;;;4.45;100.00
16821;BME280;8527;49.740;6.604;2023-01-31T15:08:44;100550.81;;;4.49;100.00
16821;BME280;8527;49.740;6.604;2023-01-31T15:13:45;100545.44;;;4.51;100.00
16821;BME280;8527;49.740;6.604;2023-01-31T15:18:47;100566.47;;;4.51;100.00
16821;BME280;8527;49.740;6.604;2023-01-31T15:23:53;100570.91;;;4.50;100.00
16821;BME280;8527;49.740;6.604;2023-01-31T15:28:51;100571.84;;;4.49;100.00
16821;BME280;8527;49.740;6.604;2023-01-31T15:33:52;100572.88;;;4.47;100.00
16821;BME280;8527;49.740;6.604;2023-01-31T15:38:55;100574.34;;;4.51;100.00
16821;BME280;8527;49.740;6.604;2023-01-31T15:43:55;100584.97;;;4.49;100.00
16821;BME280;8527;49.740;6.604;2023-01-31T15:49:23;100575.28;;;4.50;100.00
16821;BME280;8527;49.740;6.604;2023-01-31T15:54:25;100565.41;;;4.54;100.00
16821;BME280;8527;49.740;6.604;2023-01-31T15:59:25;100566.38;;;4.53;100.00
16821;BME280;8527;49.740;6.604;2023-01-31T16:04:25;100571.84;;;4.49;100.00
16821;BME280;8527;49.740;6.604;2023-01-31T16:09:29;100577.19;;;4.48;100.00
16821;BME280;8527;49.740;6.604;2023-01-31T16:14:29;100574.66;;;4.46;100.00
16821;BME280;8527;49.740;6.604;2023-01-31T16:19:29;100577.28;;;4.46;100.00
16821;BME280;8527;49.740;6.604;2023-01-31T16:24:30;100588.53;;;4.48;100.00
16821;BME280;8527;49.740;6.604;2023-01-31T16:29:36;100589.28;;;4.50;100.00
16821;BME280;8527;49.740;6.604;2023-01-31T16:34:38;100582.34;;;4.49;100.00
16821;BME280;8527;49.740;6.604;2023-01-31T16:39:41;100588.66;;;4.47;100.00
16821;BME280;8527;49.740;6.604;2023-01-31T16:44:44;100590.22;;;4.49;100.00
16821;BME280;8527;49.740;6.604;2023-01-31T16:49:42;100583.50;;;4.45;100.00
16821;BME280;8527;49.740;6.604;2023-01-31T16:54:50;100580.66;;;4.48;100.00
16821;BME280;8527;49.740;6.604;2023-01-31T16:59:49;100581.50;;;4.49;100.00
16821;BME280;8527;49.740;6.604;2023-01-31T17:04:53;100593.47;;;4.53;100.00
16821;BME280;8527;49.740;6.604;2023-01-31T17:09:56;100583.91;;;4.52;100.00
16821;BME280;8527;49.740;6.604;2023-01-31T17:14:55;100586.66;;;4.50;100.00
16821;BME280;8527;49.740;6.604;2023-01-31T17:19:54;100577.19;;;4.48;100.00
16821;BME280;8527;49.740;6.604;2023-01-31T17:25:01;100571.00;;;4.49;100.00
16821;BME280;8527;49.740;6.604;2023-01-31T17:29:59;100582.22;;;4.51;100.00
16821;BME280;8527;49.740;6.604;2023-01-31T17:34:57;100587.38;;;4.53;100.00
16821;BME280;8527;49.740;6.604;2023-01-31T17:40:01;100600.31;;;4.56;100.00
16821;BME280;8527;49.740;6.604;2023-01-31T17:45:00;100591.59;;;4.55;100.00
16821;BME280;8527;49.740;6.604;2023-01-31T17:49:58;100586.44;;;4.54;100.00
16821;BME280;8527;49.740;6.604;2023-01-31T17:54:57;100587.06;;;4.57;100.00
16821;BME280;8527;49.740;6.604;2023-01-31T17:59:58;100578.22;;;4.58;100.00
16821;BME280;8527;49.740;6.604;2023-01-31T18:04:56;100580.22;;;4.55;100.00
16821;BME280;8527;49.740;6.604;2023-01-31T18:09:55;100580.84;;;4.58;100.00
16821;BME280;8527;49.740;6.604;2023-01-31T18:14:53;100578.22;;;4.58;100.00
16821;BME280;8527;49.740;6.604;2023-01-31T18:19:54;100581.81;;;4.57;100.00
16821;BME280;8527;49.740;6.604;2023-01-31T18:24:53;100580.13;;;4.56;100.00
16821;BME280;8527;49.740;6.604;2023-01-31T18:29:51;100580.84;;;4.58;100.00
16821;BME280;8527;49.740;6.604;2023-01-31T18:34:49;100576.56;;;4.57;100.00
16821;BME280;8527;49.740;6.604;2023-01-31T18:39:53;100582.22;;;4.64;100.00
16821;BME280;8527;49.740;6.604;2023-01-31T18:44:52;100576.22;;;4.62;100.00
16821;BME280;8527;49.740;6.604;2023-01-31T18:49:51;100578.84;;;4.62;100.00
16821;BME280;8527;49.740;6.604;2023-01-31T18:54:52;100578.09;;;4.60;100.00
16821;BME280;8527;49.740;6.604;2023-01-31T18:59:51;100571.28;;;4.57;100.00
16821;BME280;8527;49.740;6.604;2023-01-31T19:04:49;100569.50;;;4.58;100.00
16821;BME280;8527;49.740;6.604;2023-01-31T19:09:48;100570.56;;;4.55;100.00
16821;BME280;8527;49.740;6.604;2023-01-31T19:14:52;100564.22;;;4.58;100.00
16821;BME280;8527;49.740;6.604;2023-01-31T19:19:51;100566.88;;;4.58;100.00
16821;BME280;8527;49.740;6.604;2023-01-31T19:24:52;100553.84;;;4.56;100.00
16821;BME280;8527;49.740;6.604;2023-01-31T19:29:53;100541.44;;;4.58;100.00
16821;BME280;8527;49.740;6.604;2023-01-31T19:34:57;100538.81;;;4.58;100.00
16821;BME280;8527;49.740;6.604;2023-01-31T19:39:57;100539.63;;;4.59;100.00
16821;BME280;8527;49.740;6.604;2023-01-31T19:44:59;100547.09;;;4.65;100.00
16821;BME280;8527;49.740;6.604;2023-01-31T19:49:57;100552.13;;;4.68;100.00
16821;BME280;8527;49.740;6.604;2023-01-31T19:54:56;100553.06;;;4.67;100.00
16821;BME280;8527;49.740;6.604;2023-01-31T19:59:54;100542.34;;;4.70;100.00
16821;BME280;8527;49.740;6.604;2023-01-31T20:04:56;100536.03;;;4.73;100.00
16821;BME280;8527;49.740;6.604;2023-01-31T20:09:54;100541.78;;;4.78;100.00
16821;BME280;8527;49.740;6.604;2023-01-31T20:14:53;100549.22;;;4.84;100.00
16821;BME280;8527;49.740;6.604;2023-01-31T20:19:52;100555.63;;;4.80;100.00
16821;BME280;8527;49.740;6.604;2023-01-31T20:24:53;100556.78;;;4.89;100.00
16821;BME280;8527;49.740;6.604;2023-01-31T20:29:52;100572.22;;;4.93;100.00
16821;BME280;8527;49.740;6.604;2023-01-31T20:34:50;100565.63;;;4.88;100.00
16821;BME280;8527;49.740;6.604;2023-01-31T20:39:49;100575.06;;;4.90;100.00
16821;BME280;8527;49.740;6.604;2023-01-31T20:44:53;100567.41;;;4.87;100.00
16821;BME280;8527;49.740;6.604;2023-01-31T20:49:51;100564.88;;;4.86;100.00
16821;BME280;8527;49.740;6.604;2023-01-31T20:54:50;100568.34;;;4.86;100.00
16821;BME280;8527;49.740;6.604;2023-01-31T20:59:48;100567.31;;;4.89;100.00
16821;BME280;8527;49.740;6.604;2023-01-31T21:04:50;100574.88;;;4.93;100.00
16821;BME280;8527;49.740;6.604;2023-01-31T21:09:48;100576.75;;;4.91;100.00
16821;BME280;8527;49.740;6.604;2023-01-31T21:14:47;100568.84;;;4.91;100.00
16821;BME280;8527;49.740;6.604;2023-01-31T21:19:45;100554.03;;;4.90;100.00
16821;BME280;8527;49.740;6.604;2023-01-31T21:24:49;100546.03;;;4.92;100.00
16821;BME280;8527;49.740;6.604;2023-01-31T21:29:47;100538.16;;;4.92;100.00
16821;BME280;8527;49.740;6.604;2023-01-31T21:34:46;100529.41;;;4.91;100.00
16821;BME280;8527;49.740;6.604;2023-01-31T21:39:53;100538.88;;;4.94;100.00
16821;BME280;8527;49.740;6.604;2023-01-31T21:44:52;100540.78;;;4.92;100.00
16821;BME280;8527;49.740;6.604;2023-01-31T21:49:50;100537.09;;;4.95;100.00
16821;BME280;8527;49.740;6.604;2023-01-31T21:54:49;100527.41;;;4.95;100.00
16821;BME280;8527;49.740;6.604;2023-01-31T21:59:50;100534.34;;;4.96;100.00
16821;BME280;8527;49.740;6.604;2023-01-31T22:04:48;100526.34;;;4.98;100.00
16821;BME280;8527;49.740;6.604;2023-01-31T22:09:47;100520.25;;;4.97;100.00
16821;BME280;8527;49.740;6.604;2023-01-31T22:14:50;100512.25;;;4.99;100.00
16821;BME280;8527;49.740;6.604;2023-01-31T22:19:49;100516.56;;;5.00;100.00
16821;BME280;8527;49.740;6.604;2023-01-31T22:24:47;100501.63;;;5.00;100.00
16821;BME280;8527;49.740;6.604;2023-01-31T22:29:45;100484.66;;;5.04;100.00
16821;BME280;8527;49.740;6.604;2023-01-31T22:34:46;100476.44;;;5.09;100.00
16821;BME280;8527;49.740;6.604;2023-01-31T22:39:45;100471.88;;;5.11;100.00
16821;BME280;8527;49.740;6.604;2023-01-31T22:44:43;100463.03;;;5.12;100.00
16821;BME280;8527;49.740;6.604;2023-01-31T22:49:47;100471.66;;;5.14;100.00
16821;BME280;8527;49.740;6.604;2023-01-31T22:54:46;100471.53;;;5.16;100.00
16821;BME280;8527;49.740;6.604;2023-01-31T22:59:44;100467.34;;;5.13;100.00
16821;BME280;8527;49.740;6.604;2023-01-31T23:04:43;100452.41;;;5.14;100.00
16821;BME280;8527;49.740;6.604;2023-01-31T23:09:47;100455.63;;;5.17;100.00
16821;BME280;8527;49.740;6.604;2023-01-31T23:14:51;100452.91;;;5.19;100.00
16821;BME280;8527;49.740;6.604;2023-01-31T23:19:49;100441.75;;;5.15;100.00
16821;BME280;8527;49.740;6.604;2023-01-31T23:24:50;100448.59;;;5.18;100.00
16821;BME280;8527;49.740;6.604;2023-01-31T23:29:55;100446.69;;;5.20;100.00
16821;BME280;8527;49.740;6.604;2023-01-31T23:34:53;100431.13;;;5.17;100.00
16821;BME280;8527;49.740;6.604;2023-01-31T23:39:54;100421.34;;;5.19;100.00
16821;BME280;8527;49.740;6.604;2023-01-31T23:44:56;100429.69;;;5.24;100.00
16821;BME280;8527;49.740;6.604;2023-01-31T23:49:54;100415.97;;;5.20;100.00
16821;BME280;8527;49.740;6.604;2023-01-31T23:54:55;100423.63;;;5.24;100.00
16821;BME280;8527;49.740;6.604;2023-01-31T23:59:54;100418.34;;;5.24;100.00
